createdAt,value
2023-03-05T00:01:29.366Z,3.53
2023-03-05T00:03:57.821Z,3.97
2023-03-05T00:06:28.024Z,4.18
2023-03-05T00:08:58.429Z,3.55
2023-03-05T00:11:30.192Z,4.05
2023-03-05T00:13:59.511Z,3.65
2023-03-05T00:16:28.294Z,3.90
2023-03-05T00:18:57.814Z,3.80
2023-03-05T00:21:35.316Z,3.97
2023-03-05T00:24:15.479Z,4.45
2023-03-05T00:26:43.942Z,4.20
2023-03-05T00:29:22.006Z,4.03
2023-03-05T00:31:50.050Z,4.47
2023-03-05T00:34:19.260Z,4.32
2023-03-05T00:36:50.369Z,3.97
2023-03-05T00:39:19.918Z,4.30
2023-03-05T00:41:48.501Z,4.25
2023-03-05T00:44:16.238Z,4.70
2023-03-05T00:46:44.253Z,4.60
2023-03-05T00:49:12.122Z,4.38
2023-03-05T00:51:40.460Z,4.63
2023-03-05T00:54:08.087Z,5.22
2023-03-05T00:56:36.152Z,5.40
2023-03-05T00:59:04.466Z,5.10
2023-03-05T01:01:32.481Z,4.35
2023-03-05T01:04:01.272Z,4.68
2023-03-05T01:06:29.642Z,6.10
2023-03-05T01:08:57.352Z,5.85
2023-03-05T01:11:25.772Z,5.75
2023-03-05T01:13:53.933Z,5.47
2023-03-05T01:16:22.017Z,5.93
2023-03-05T01:18:49.748Z,6.07
2023-03-05T01:21:17.751Z,6.32
2023-03-05T01:23:45.402Z,6.25
2023-03-05T01:26:13.321Z,5.97
2023-03-05T01:28:41.574Z,6.70
2023-03-05T01:31:10.759Z,6.60
2023-03-05T01:33:39.702Z,6.32
2023-03-05T01:36:13.343Z,6.32
2023-03-05T01:38:42.260Z,6.45
2023-03-05T01:41:11.427Z,6.20
2023-03-05T01:43:39.711Z,6.43
2023-03-05T01:46:28.072Z,6.20
2023-03-05T01:49:14.357Z,6.55
2023-03-05T01:51:42.285Z,6.22
2023-03-05T01:54:13.279Z,6.50
2023-03-05T01:56:43.453Z,6.13
2023-03-05T01:59:12.779Z,6.53
2023-03-05T02:01:48.116Z,6.18
2023-03-05T02:04:18.759Z,6.65
2023-03-05T02:06:48.522Z,7.63
2023-03-05T02:09:16.220Z,6.80
2023-03-05T02:11:44.535Z,6.82
2023-03-05T02:14:12.348Z,6.88
2023-03-05T02:16:41.096Z,7.85
2023-03-05T02:19:12.803Z,7.85
2023-03-05T02:21:44.258Z,7.70
2023-03-05T02:24:18.279Z,7.05
2023-03-05T02:26:47.818Z,7.05
2023-03-05T02:29:19.843Z,7.28
2023-03-05T02:31:48.011Z,7.28
2023-03-05T02:34:15.797Z,8.10
2023-03-05T02:36:43.772Z,7.68
2023-03-05T02:39:13.610Z,7.75
2023-03-05T02:41:41.720Z,8.68
2023-03-05T02:44:09.963Z,8.50
2023-03-05T02:46:38.434Z,7.60
2023-03-05T02:49:06.181Z,7.85
2023-03-05T02:51:34.201Z,7.60
2023-03-05T02:54:02.247Z,8.57
2023-03-05T02:56:31.218Z,7.28
2023-03-05T02:59:01.925Z,7.78
2023-03-05T03:01:30.095Z,8.27
2023-03-05T03:03:59.005Z,8.02
2023-03-05T03:06:27.082Z,8.52
2023-03-05T03:08:54.922Z,8.52
2023-03-05T03:11:22.912Z,7.68
2023-03-05T03:13:50.525Z,7.78
2023-03-05T03:16:18.713Z,7.50
2023-03-05T03:18:48.809Z,8.07
2023-03-05T03:21:24.660Z,7.85
2023-03-05T03:23:52.717Z,8.18
2023-03-05T03:26:21.015Z,8.15
2023-03-05T03:28:48.673Z,8.88
2023-03-05T03:31:16.741Z,8.50
2023-03-05T03:33:44.639Z,8.10
2023-03-05T03:36:13.145Z,7.72
2023-03-05T03:38:40.848Z,8.70
2023-03-05T03:41:09.540Z,7.97
2023-03-05T03:43:37.638Z,7.25
2023-03-05T03:46:07.363Z,8.15
2023-03-05T03:48:36.080Z,8.55
2023-03-05T03:51:08.298Z,7.32
2023-03-05T03:53:35.967Z,7.38
2023-03-05T03:56:04.216Z,7.70
2023-03-05T03:58:31.886Z,7.85
2023-03-05T04:00:59.880Z,8.00
2023-03-05T04:03:27.579Z,8.02
2023-03-05T04:05:55.471Z,8.15
2023-03-05T04:08:23.144Z,8.23
2023-03-05T04:10:51.063Z,7.97
2023-03-05T04:13:18.780Z,7.25
2023-03-05T04:15:46.832Z,7.38
2023-03-05T04:18:14.484Z,7.00
2023-03-05T04:20:42.441Z,7.30
2023-03-05T04:23:10.064Z,7.13
2023-03-05T04:25:37.928Z,7.20
2023-03-05T04:28:05.814Z,7.22
2023-03-05T04:30:33.773Z,7.43
2023-03-05T04:33:01.424Z,6.75
2023-03-05T04:35:29.368Z,7.28
2023-03-05T04:37:57.052Z,6.85
2023-03-05T04:40:24.960Z,7.00
2023-03-05T04:42:52.598Z,7.00
2023-03-05T04:45:20.513Z,6.80
2023-03-05T04:47:48.197Z,6.65
2023-03-05T04:50:16.323Z,7.18
2023-03-05T04:52:45.636Z,6.90
2023-03-05T04:55:15.730Z,6.95
2023-03-05T04:57:43.684Z,7.05
2023-03-05T05:00:14.851Z,7.05
2023-03-05T05:02:45.014Z,6.72
2023-03-05T05:05:16.559Z,6.72
2023-03-05T05:07:44.851Z,6.72
2023-03-05T05:10:14.138Z,7.05
2023-03-05T05:12:42.136Z,6.90
2023-03-05T05:15:12.315Z,6.90
2023-03-05T05:17:40.600Z,6.70
2023-03-05T05:20:11.572Z,6.95
2023-03-05T05:22:39.496Z,6.43
2023-03-05T05:25:07.720Z,6.38
2023-03-05T05:27:35.856Z,6.97
2023-03-05T05:30:04.610Z,6.70
2023-03-05T05:32:32.273Z,7.38
2023-03-05T05:35:00.371Z,7.03
2023-03-05T05:37:29.508Z,6.70
2023-03-05T05:39:57.428Z,6.50
2023-03-05T05:42:26.373Z,7.25
2023-03-05T05:44:55.532Z,5.97
2023-03-05T05:47:23.221Z,6.75
2023-03-05T05:49:51.459Z,6.38
2023-03-05T05:52:19.137Z,6.57
2023-03-05T05:54:47.156Z,6.53
2023-03-05T05:57:14.902Z,6.38
2023-03-05T05:59:43.057Z,6.68
2023-03-05T06:02:13.767Z,6.30
2023-03-05T06:04:41.749Z,5.65
2023-03-05T06:07:09.388Z,6.95
2023-03-05T06:09:37.342Z,5.93
2023-03-05T06:12:05.517Z,6.47
2023-03-05T06:14:33.586Z,6.63
2023-03-05T06:17:01.381Z,6.40
2023-03-05T06:19:29.378Z,6.95
2023-03-05T06:21:57.628Z,6.35
2023-03-05T06:24:25.698Z,6.93
2023-03-05T06:26:53.369Z,6.65
2023-03-05T06:29:21.352Z,6.80
2023-03-05T06:31:49.140Z,6.60
2023-03-05T06:34:17.074Z,6.68
2023-03-05T06:36:44.795Z,6.45
2023-03-05T06:39:12.740Z,6.43
2023-03-05T06:41:40.548Z,6.93
2023-03-05T06:44:08.464Z,6.18
2023-03-05T06:46:39.820Z,5.68
2023-03-05T06:49:09.604Z,6.40
2023-03-05T06:51:39.657Z,5.68
2023-03-05T06:54:12.676Z,5.70
2023-03-05T06:56:42.964Z,5.70
2023-03-05T06:59:13.487Z,6.07
2023-03-05T07:01:41.192Z,5.35
2023-03-05T07:04:09.241Z,5.07
2023-03-05T07:06:38.755Z,5.13
2023-03-05T07:09:08.977Z,5.00
2023-03-05T07:11:36.961Z,5.00
2023-03-05T07:14:05.301Z,4.35
2023-03-05T07:16:34.217Z,4.35
2023-03-05T07:19:04.276Z,4.65
2023-03-05T07:21:34.195Z,4.30
2023-03-05T07:24:03.922Z,4.50
2023-03-05T07:26:33.565Z,4.32
2023-03-05T07:29:02.610Z,4.70
2023-03-05T07:31:33.313Z,4.32
2023-03-05T07:34:02.928Z,4.45
2023-03-05T07:36:32.315Z,4.10
2023-03-05T07:39:00.423Z,4.63
2023-03-05T07:41:28.161Z,4.50
2023-03-05T07:43:57.585Z,4.30
2023-03-05T07:46:30.675Z,3.97
2023-03-05T07:48:59.045Z,4.07
2023-03-05T07:51:27.983Z,4.32
2023-03-05T07:53:58.430Z,3.67
2023-03-05T07:56:37.893Z,3.70
2023-03-05T07:59:08.848Z,3.78
2023-03-05T08:01:37.360Z,3.80
2023-03-05T08:04:07.324Z,3.85
2023-03-05T08:06:35.067Z,3.42
2023-03-05T08:09:03.148Z,3.65
2023-03-05T08:11:30.903Z,4.13
2023-03-05T08:13:59.578Z,3.63
2023-03-05T08:16:27.952Z,3.65
2023-03-05T08:18:57.511Z,3.60
2023-03-05T08:21:33.521Z,3.60
2023-03-05T08:24:04.250Z,5.10
2023-03-05T08:26:34.166Z,4.30
2023-03-05T08:29:03.367Z,4.03
2023-03-05T08:31:31.733Z,4.47
2023-03-05T08:34:01.019Z,3.80
2023-03-05T08:36:29.963Z,3.47
2023-03-05T08:38:59.767Z,3.70
2023-03-05T08:41:27.687Z,4.50
2023-03-05T08:43:55.901Z,4.55
2023-03-05T08:46:24.080Z,3.97
2023-03-05T08:48:52.151Z,4.28
2023-03-05T08:51:23.600Z,4.25
2023-03-05T08:53:52.391Z,4.30
2023-03-05T08:56:20.669Z,5.00
2023-03-05T08:58:48.702Z,5.05
2023-03-05T09:01:16.388Z,5.45
2023-03-05T09:03:44.396Z,5.10
2023-03-05T09:06:12.922Z,14.07
2023-03-05T09:08:41.238Z,6.30
2023-03-05T09:11:11.670Z,5.30
2023-03-05T09:13:39.862Z,5.85
2023-03-05T09:16:11.366Z,6.45
2023-03-05T09:18:40.658Z,10.85
2023-03-05T09:21:10.887Z,16.60
2023-03-05T09:23:40.684Z,10.90
2023-03-05T09:26:12.060Z,10.65
2023-03-05T09:28:40.913Z,11.98
2023-03-05T09:31:10.659Z,12.68
2023-03-05T09:33:39.710Z,14.27
2023-03-05T09:36:27.442Z,19.75
2023-03-05T09:38:55.764Z,11.70
2023-03-05T09:41:30.848Z,10.45
2023-03-05T09:44:08.904Z,9.38
2023-03-05T09:46:43.881Z,7.10
2023-03-05T09:49:39.635Z,7.65
2023-03-05T09:52:39.536Z,7.72
2023-03-05T09:55:24.389Z,8.35
2023-03-05T09:57:57.205Z,11.55
2023-03-05T10:00:32.734Z,11.43
2023-03-05T10:03:05.835Z,10.07
2023-03-05T10:06:11.246Z,8.02
2023-03-05T10:09:02.813Z,7.88
2023-03-05T10:11:46.113Z,9.27
2023-03-05T10:14:20.003Z,8.07
2023-03-05T10:16:56.779Z,8.20
2023-03-05T10:19:52.444Z,7.22
2023-03-05T10:22:28.579Z,6.07
2023-03-05T10:25:26.403Z,6.82
2023-03-05T10:28:17.765Z,10.13
2023-03-05T10:30:55.953Z,8.07
2023-03-05T10:33:43.829Z,7.63
2023-03-05T10:36:24.304Z,7.38
2023-03-05T10:39:16.849Z,7.60
2023-03-05T10:42:05.878Z,10.48
2023-03-05T10:44:54.417Z,9.77
2023-03-05T10:47:54.344Z,10.05
2023-03-05T10:50:25.974Z,12.07
2023-03-05T10:53:03.567Z,10.20
2023-03-05T10:55:32.179Z,9.38
2023-03-05T10:58:01.245Z,9.77
2023-03-05T11:00:29.249Z,8.68
2023-03-05T11:03:03.466Z,6.78
2023-03-05T11:05:40.329Z,8.20
2023-03-05T11:08:32.489Z,12.93
2023-03-05T11:11:09.164Z,10.02
2023-03-05T11:13:59.772Z,14.07
2023-03-05T11:16:34.148Z,15.43
2023-03-05T11:19:24.622Z,10.68
2023-03-05T11:22:15.172Z,9.25
2023-03-05T11:24:46.660Z,15.45
2023-03-05T11:27:36.901Z,13.40
2023-03-05T11:30:24.368Z,8.77
2023-03-05T11:33:13.685Z,11.30
2023-03-05T11:35:43.843Z,13.00
2023-03-05T11:38:24.676Z,10.77
2023-03-05T11:40:55.709Z,9.05
2023-03-05T11:43:26.289Z,8.88
2023-03-05T11:46:05.520Z,8.45
2023-03-05T11:48:37.641Z,11.43
2023-03-05T11:51:18.281Z,10.43
2023-03-05T11:53:50.244Z,12.50
2023-03-05T11:56:24.410Z,11.15
2023-03-05T11:59:07.193Z,11.98
2023-03-05T12:01:42.476Z,9.25
2023-03-05T12:04:10.542Z,8.20
2023-03-05T12:07:02.073Z,10.13
2023-03-05T12:09:50.658Z,12.52
2023-03-05T12:12:44.649Z,14.68
2023-03-05T12:15:37.055Z,15.80
2023-03-05T12:18:21.065Z,11.15
2023-03-05T12:21:14.792Z,14.43
2023-03-05T12:24:03.045Z,8.90
2023-03-05T12:26:56.118Z,8.75
2023-03-05T12:29:43.591Z,11.52
2023-03-05T12:32:25.649Z,8.93
2023-03-05T12:35:00.300Z,8.07
2023-03-05T12:37:28.271Z,8.93
2023-03-05T12:40:17.352Z,10.55
2023-03-05T12:43:05.981Z,8.43
2023-03-05T12:45:39.624Z,8.10
2023-03-05T12:50:39.924Z,8.77
2023-03-05T12:53:18.475Z,8.77
2023-03-05T12:55:48.914Z,9.75
2023-03-05T12:58:35.349Z,8.70
2023-03-05T13:01:11.835Z,8.52
2023-03-05T13:03:48.626Z,9.15
2023-03-05T13:06:34.134Z,8.48
2023-03-05T13:09:25.363Z,8.45
2023-03-05T13:11:55.272Z,8.23
2023-03-05T13:14:32.291Z,7.80
2023-03-05T13:17:00.985Z,7.55
2023-03-05T13:19:32.887Z,7.57
2023-03-05T13:22:11.577Z,10.15
2023-03-05T13:24:39.526Z,7.93
2023-03-05T13:27:31.055Z,7.72
2023-03-05T13:29:59.057Z,6.75
2023-03-05T13:32:30.796Z,7.55
2023-03-05T13:35:02.089Z,8.45
2023-03-05T13:37:34.450Z,7.57
2023-03-05T13:40:15.736Z,11.77
2023-03-05T13:42:43.467Z,10.02
2023-03-05T13:45:31.622Z,7.20
2023-03-05T13:48:05.746Z,7.53
2023-03-05T13:50:38.195Z,7.65
2023-03-05T13:53:31.781Z,7.63
2023-03-05T13:56:13.783Z,8.35
2023-03-05T13:58:57.196Z,11.63
2023-03-05T14:01:36.932Z,11.07
2023-03-05T14:04:13.819Z,10.70
2023-03-05T14:07:07.635Z,8.88
2023-03-05T14:09:41.080Z,6.60
2023-03-05T14:12:38.514Z,5.55
2023-03-05T14:15:47.560Z,6.18
2023-03-05T14:18:19.593Z,6.72
2023-03-05T14:21:08.866Z,6.35
2023-03-05T14:23:53.005Z,5.38
2023-03-05T14:26:32.606Z,5.30
2023-03-05T14:29:05.228Z,6.10
2023-03-05T14:31:57.801Z,5.38
2023-03-05T14:34:27.840Z,4.95
2023-03-05T14:37:03.387Z,7.20
2023-03-05T14:39:59.947Z,6.93
2023-03-05T14:42:50.823Z,8.23
2023-03-05T14:45:40.873Z,6.18
2023-03-05T14:48:10.638Z,6.93
2023-03-05T14:50:42.483Z,8.25
2023-03-05T14:53:48.376Z,7.95
2023-03-05T14:56:28.172Z,8.18
2023-03-05T14:58:59.737Z,7.75
2023-03-05T15:01:27.935Z,7.07
2023-03-05T15:03:55.674Z,8.27
2023-03-05T15:06:45.396Z,7.50
2023-03-05T15:09:17.670Z,8.50
2023-03-05T15:11:45.992Z,7.60
2023-03-05T15:14:13.677Z,6.50
2023-03-05T15:16:45.427Z,7.07
2023-03-05T15:19:13.899Z,8.80
2023-03-05T15:21:42.240Z,7.95
2023-03-05T15:24:11.352Z,7.80
2023-03-05T15:26:39.860Z,8.02
2023-03-05T15:29:07.582Z,8.25
2023-03-05T15:31:38.761Z,8.57
2023-03-05T15:34:07.288Z,8.82
2023-03-05T15:36:35.193Z,8.05
2023-03-05T15:39:03.093Z,8.77
2023-03-05T15:41:31.139Z,8.00
2023-03-05T15:43:58.885Z,8.80
2023-03-05T15:46:26.911Z,9.23
2023-03-05T15:48:54.806Z,9.15
2023-03-05T15:51:22.870Z,9.07
2023-03-05T15:53:50.692Z,9.75
2023-03-05T15:56:19.539Z,9.65
2023-03-05T15:58:53.247Z,9.50
2023-03-05T16:01:23.350Z,9.57
2023-03-05T16:03:51.642Z,9.48
2023-03-05T16:06:24.028Z,9.43
2023-03-05T16:08:56.903Z,8.98
2023-03-05T16:11:25.856Z,9.55
2023-03-05T16:13:53.770Z,10.48
2023-03-05T16:16:23.684Z,10.00
2023-03-05T16:18:51.555Z,11.68
2023-03-05T16:21:19.734Z,11.40
2023-03-05T16:23:49.419Z,12.75
2023-03-05T16:26:17.595Z,12.50
2023-03-05T16:28:45.575Z,10.07
2023-03-05T16:31:13.631Z,12.02
2023-03-05T16:33:41.324Z,12.07
2023-03-05T16:36:20.756Z,10.60
2023-03-05T16:38:50.934Z,11.32
2023-03-05T16:41:21.954Z,10.85
2023-03-05T16:43:54.154Z,11.40
2023-03-05T16:46:23.018Z,11.60
2023-03-05T16:48:52.289Z,11.95
2023-03-05T16:51:21.280Z,12.63
2023-03-05T16:53:49.284Z,11.48
2023-03-05T16:56:17.670Z,11.38
2023-03-05T16:58:45.362Z,10.88
2023-03-05T17:01:18.129Z,11.05
2023-03-05T17:03:47.002Z,12.02
2023-03-05T17:06:24.130Z,12.45
2023-03-05T17:08:52.880Z,12.50
2023-03-05T17:11:21.562Z,12.98
2023-03-05T17:13:49.370Z,13.35
2023-03-05T17:16:33.850Z,12.10
2023-03-05T17:19:01.687Z,12.82
2023-03-05T17:21:29.629Z,13.13
2023-03-05T17:23:57.521Z,13.75
2023-03-05T17:26:25.959Z,13.35
2023-03-05T17:28:54.596Z,13.68
2023-03-05T17:31:22.717Z,15.23
2023-03-05T17:33:50.938Z,14.40
2023-03-05T17:36:20.829Z,14.32
2023-03-05T17:38:50.315Z,15.55
2023-03-05T17:41:19.830Z,14.18
2023-03-05T17:43:48.005Z,14.85
2023-03-05T17:46:16.887Z,24.50
2023-03-05T17:48:45.055Z,19.95
2023-03-05T17:51:16.411Z,19.90
2023-03-05T17:53:44.390Z,17.17
2023-03-05T17:56:14.248Z,18.25
2023-03-05T17:58:42.134Z,19.15
2023-03-05T18:01:10.656Z,19.10
2023-03-05T18:03:39.354Z,22.17
2023-03-05T18:06:07.662Z,24.85
2023-03-05T18:08:36.068Z,23.25
2023-03-05T18:11:04.161Z,22.23
2023-03-05T18:13:32.226Z,21.60
2023-03-05T18:16:01.091Z,20.05
2023-03-05T18:18:28.995Z,19.38
2023-03-05T18:20:57.213Z,18.20
2023-03-05T18:23:24.990Z,19.50
2023-03-05T18:25:53.160Z,20.35
2023-03-05T18:28:21.055Z,20.77
2023-03-05T18:30:49.361Z,21.70
2023-03-05T18:33:25.184Z,20.70
2023-03-05T18:35:53.769Z,22.10
2023-03-05T18:38:23.669Z,21.38
2023-03-05T18:40:53.417Z,22.38
2023-03-05T18:43:22.559Z,21.10
2023-03-05T18:45:55.855Z,20.35
2023-03-05T18:48:23.858Z,19.67
2023-03-05T18:50:53.907Z,20.73
2023-03-05T18:53:22.570Z,20.63
2023-03-05T18:55:51.944Z,20.00
2023-03-05T18:58:20.069Z,19.15
2023-03-05T19:00:48.899Z,20.30
2023-03-05T19:03:19.337Z,19.90
2023-03-05T19:05:50.257Z,20.25
2023-03-05T19:08:18.337Z,21.15
2023-03-05T19:10:47.014Z,20.17
2023-03-05T19:13:36.300Z,21.35
2023-03-05T19:16:36.841Z,22.00
2023-03-05T19:19:14.361Z,22.52
2023-03-05T19:21:43.954Z,22.80
2023-03-05T19:24:12.316Z,22.63
2023-03-05T19:26:40.811Z,23.77
2023-03-05T19:29:09.473Z,22.55
2023-03-05T19:31:38.134Z,24.75
2023-03-05T19:34:05.979Z,24.58
2023-03-05T19:36:35.582Z,25.33
2023-03-05T19:39:05.727Z,25.15
2023-03-05T19:41:34.412Z,25.67
2023-03-05T19:44:02.781Z,25.98
2023-03-05T19:46:31.696Z,23.90
2023-03-05T19:48:59.637Z,25.92
2023-03-05T19:51:28.492Z,23.63
2023-03-05T19:53:56.321Z,25.45
2023-03-05T19:56:24.335Z,24.42
2023-03-05T19:58:52.096Z,24.65
2023-03-05T20:01:23.092Z,23.75
2023-03-05T20:03:54.430Z,24.70
2023-03-05T20:06:23.248Z,25.98
2023-03-05T20:08:51.301Z,25.92
2023-03-05T20:11:21.566Z,25.08
2023-03-05T20:13:50.334Z,26.42
2023-03-05T20:16:26.740Z,25.80
2023-03-05T20:18:55.905Z,26.95
2023-03-05T20:21:27.684Z,25.88
2023-03-05T20:23:58.017Z,27.23
2023-03-05T20:26:27.113Z,28.77
2023-03-05T20:28:56.541Z,25.98
2023-03-05T20:31:26.462Z,26.88
2023-03-05T20:33:56.282Z,27.58
2023-03-05T20:36:24.633Z,29.15
2023-03-05T20:38:52.459Z,28.02
2023-03-05T20:41:20.904Z,27.58
2023-03-05T20:43:50.791Z,27.98
2023-03-05T20:46:22.265Z,27.80
2023-03-05T20:48:52.087Z,26.63
2023-03-05T20:51:24.567Z,27.73
2023-03-05T20:53:57.942Z,27.73
2023-03-05T20:56:28.011Z,27.15
2023-03-05T20:58:58.242Z,27.30
2023-03-05T21:01:27.418Z,28.90
2023-03-05T21:03:57.227Z,29.85
2023-03-05T21:06:27.200Z,27.88
2023-03-05T21:08:55.135Z,27.85
2023-03-05T21:11:23.196Z,28.48
2023-03-05T21:13:51.053Z,28.20
2023-03-05T21:16:26.012Z,28.63
2023-03-05T21:18:55.943Z,29.13
2023-03-05T21:21:24.514Z,29.05
2023-03-05T21:23:53.306Z,27.90
2023-03-05T21:26:21.681Z,27.23
2023-03-05T21:28:49.451Z,27.20
2023-03-05T21:31:20.661Z,29.17
2023-03-05T21:33:49.431Z,27.70
2023-03-05T21:36:18.850Z,29.05
2023-03-05T21:38:47.904Z,28.38
2023-03-05T21:41:18.191Z,29.38
2023-03-05T21:43:46.276Z,29.45
2023-03-05T21:46:15.059Z,29.30
2023-03-05T21:48:43.093Z,30.55
2023-03-05T21:51:13.687Z,30.08
2023-03-05T21:53:41.899Z,29.60
2023-03-05T21:56:19.185Z,31.00
2023-03-05T21:58:47.965Z,29.80
2023-03-05T22:01:18.561Z,29.23
2023-03-05T22:03:47.636Z,29.70
2023-03-05T22:06:17.761Z,31.05
2023-03-05T22:08:46.140Z,30.88
2023-03-05T22:11:17.234Z,30.33
2023-03-05T22:13:45.458Z,28.95
2023-03-05T22:16:25.645Z,31.00
2023-03-05T22:18:53.838Z,31.85
2023-03-05T22:21:26.944Z,30.10
2023-03-05T22:23:57.191Z,30.90
2023-03-05T22:26:26.412Z,29.40
2023-03-05T22:28:54.496Z,28.60
2023-03-05T22:31:24.637Z,30.50
2023-03-05T22:33:53.132Z,30.08
2023-03-05T22:36:20.934Z,29.30
2023-03-05T22:38:48.916Z,28.30
2023-03-05T22:41:19.866Z,29.60
2023-03-05T22:43:48.952Z,29.77
2023-03-05T22:46:23.229Z,29.13
2023-03-05T22:48:52.269Z,30.23
2023-03-05T22:51:20.337Z,26.60
2023-03-05T22:53:48.258Z,27.95
2023-03-05T22:56:18.874Z,28.45
2023-03-05T22:58:47.601Z,28.85
2023-03-05T23:01:18.409Z,27.10
2023-03-05T23:03:47.362Z,25.95
2023-03-05T23:06:15.119Z,27.60
2023-03-05T23:08:43.077Z,26.88
2023-03-05T23:11:12.989Z,27.40
2023-03-05T23:13:41.752Z,27.02
2023-03-05T23:16:09.831Z,25.50
2023-03-05T23:18:38.093Z,26.45
2023-03-05T23:21:06.082Z,25.25
2023-03-05T23:23:34.111Z,27.02
2023-03-05T23:26:01.906Z,27.25
2023-03-05T23:28:29.910Z,26.50
2023-03-05T23:30:58.699Z,23.98
2023-03-05T23:33:26.596Z,24.95
2023-03-05T23:35:59.505Z,23.45
2023-03-05T23:38:29.634Z,25.65
2023-03-05T23:41:01.262Z,24.95
2023-03-05T23:43:30.051Z,25.17
2023-03-05T23:45:57.966Z,24.08
2023-03-05T23:48:27.827Z,24.40
2023-03-05T23:50:55.850Z,23.77
2023-03-05T23:53:32.943Z,23.38
2023-03-05T23:56:00.664Z,24.55
2023-03-05T23:58:28.611Z,24.70
